createdAt,value
2023-03-17T00:01:07.422Z,86.18
2023-03-17T00:03:45.796Z,79.53
2023-03-17T00:06:20.252Z,69.75
2023-03-17T00:08:50.905Z,83.82
2023-03-17T00:11:23.523Z,72.13
2023-03-17T00:13:56.538Z,78.65
2023-03-17T00:16:33.958Z,71.35
2023-03-17T00:19:05.508Z,64.32
2023-03-17T00:21:37.910Z,67.97
2023-03-17T00:24:15.022Z,74.60
2023-03-17T00:26:46.057Z,64.32
2023-03-17T00:29:17.678Z,72.15
2023-03-17T00:31:49.527Z,61.53
2023-03-17T00:34:21.120Z,68.97
2023-03-17T00:36:54.031Z,73.78
2023-03-17T00:39:28.158Z,70.50
2023-03-17T00:41:59.103Z,78.68
2023-03-17T00:44:30.505Z,87.35
2023-03-17T00:47:02.703Z,69.63
2023-03-17T00:49:34.192Z,72.95
2023-03-17T00:52:04.634Z,82.05
2023-03-17T00:54:35.276Z,80.90
2023-03-17T00:57:05.592Z,74.60
2023-03-17T00:59:43.708Z,67.32
2023-03-17T01:02:15.311Z,63.47
2023-03-17T01:05:12.321Z,58.67
2023-03-17T01:07:55.141Z,53.45
2023-03-17T01:10:29.490Z,60.58
2023-03-17T01:13:07.679Z,70.38
2023-03-17T01:15:47.704Z,85.72
2023-03-17T01:18:20.977Z,84.88
2023-03-17T01:20:53.163Z,72.90
2023-03-17T01:23:24.838Z,67.13
2023-03-17T01:25:57.256Z,89.60
2023-03-17T01:28:28.933Z,63.55
2023-03-17T01:30:59.502Z,65.68
2023-03-17T01:33:30.576Z,80.18
2023-03-17T01:36:07.397Z,67.75
2023-03-17T01:39:05.025Z,85.60
2023-03-17T01:41:42.323Z,63.25
2023-03-17T01:44:28.323Z,75.80
2023-03-17T01:47:01.039Z,61.22
2023-03-17T01:49:40.410Z,61.17
2023-03-17T01:52:23.686Z,75.88
2023-03-17T01:54:58.845Z,56.13
2023-03-17T01:57:43.700Z,74.63
2023-03-17T02:00:23.967Z,55.80
2023-03-17T02:02:59.262Z,59.88
2023-03-17T02:05:33.215Z,86.15
2023-03-17T02:08:05.208Z,55.33
2023-03-17T02:10:36.953Z,73.63
2023-03-17T02:13:08.246Z,69.00
2023-03-17T02:15:46.179Z,86.05
2023-03-17T02:18:19.122Z,94.78
2023-03-17T02:20:49.234Z,72.35
2023-03-17T02:23:24.276Z,64.20
2023-03-17T02:25:55.914Z,82.85
2023-03-17T02:28:33.405Z,88.90
2023-03-17T02:31:07.030Z,56.47
2023-03-17T02:33:37.268Z,61.10
2023-03-17T02:36:11.021Z,90.10
2023-03-17T02:38:42.409Z,86.68
2023-03-17T02:41:13.994Z,49.53
2023-03-17T02:43:46.382Z,63.33
2023-03-17T02:46:18.921Z,68.82
2023-03-17T02:48:51.615Z,64.13
2023-03-17T02:51:22.029Z,69.05
2023-03-17T02:53:52.734Z,89.07
2023-03-17T02:56:23.931Z,85.90
2023-03-17T02:58:54.787Z,89.78
2023-03-17T03:01:28.579Z,93.82
2023-03-17T03:04:00.001Z,108.70
2023-03-17T03:06:31.013Z,112.72
2023-03-17T03:09:02.818Z,105.38
2023-03-17T03:11:33.864Z,106.82
2023-03-17T03:14:04.960Z,94.22
2023-03-17T03:16:37.723Z,128.52
2023-03-17T03:19:10.978Z,128.13
2023-03-17T03:21:44.116Z,101.80
2023-03-17T03:24:14.798Z,110.05
2023-03-17T03:26:45.978Z,105.53
2023-03-17T03:29:19.369Z,103.10
2023-03-17T03:31:50.805Z,88.47
2023-03-17T03:34:22.621Z,102.53
2023-03-17T03:36:53.556Z,102.55
2023-03-17T03:39:24.292Z,119.68
2023-03-17T03:41:59.586Z,137.80
2023-03-17T03:44:30.128Z,154.18
2023-03-17T03:47:00.370Z,149.55
2023-03-17T03:49:31.557Z,157.48
2023-03-17T03:52:01.917Z,126.05
2023-03-17T03:54:32.309Z,109.57
2023-03-17T03:57:03.495Z,120.00
2023-03-17T03:59:34.730Z,141.52
2023-03-17T04:02:05.196Z,141.23
2023-03-17T04:04:36.391Z,117.78
2023-03-17T04:07:07.606Z,110.45
2023-03-17T04:09:40.089Z,93.50
2023-03-17T04:12:14.303Z,74.30
2023-03-17T04:14:47.789Z,87.53
2023-03-17T04:17:18.309Z,81.70
2023-03-17T04:19:49.795Z,89.18
2023-03-17T04:22:24.418Z,78.80
2023-03-17T04:24:55.806Z,69.65
2023-03-17T04:27:27.421Z,72.90
2023-03-17T04:30:02.099Z,59.90
2023-03-17T04:32:34.187Z,63.95
2023-03-17T04:35:04.584Z,66.93
2023-03-17T04:37:34.806Z,50.70
2023-03-17T04:40:10.694Z,42.10
2023-03-17T04:42:45.125Z,30.60
2023-03-17T04:45:19.396Z,29.83
2023-03-17T04:47:50.353Z,34.97
2023-03-17T04:50:20.865Z,40.42
2023-03-17T04:52:52.030Z,35.58
2023-03-17T04:55:23.692Z,37.90
2023-03-17T04:57:55.547Z,33.22
2023-03-17T05:00:27.329Z,35.95
2023-03-17T05:03:01.112Z,31.75
2023-03-17T05:05:32.280Z,24.58
2023-03-17T05:08:03.427Z,25.13
2023-03-17T05:10:33.863Z,36.30
2023-03-17T05:13:06.277Z,47.05
2023-03-17T05:15:38.649Z,61.28
2023-03-17T05:20:38.462Z,128.68
2023-03-17T05:23:10.047Z,98.50
2023-03-17T05:25:41.950Z,80.22
2023-03-17T05:28:13.050Z,94.72
2023-03-17T05:30:46.568Z,82.97
2023-03-17T05:33:17.962Z,84.47
2023-03-17T05:35:49.541Z,84.93
2023-03-17T05:38:19.712Z,72.85
2023-03-17T05:40:53.038Z,72.15
2023-03-17T05:43:24.675Z,68.35
2023-03-17T05:45:56.399Z,61.05
2023-03-17T05:48:35.286Z,71.32
2023-03-17T05:51:09.534Z,85.85
2023-03-17T05:53:41.308Z,79.82
2023-03-17T05:56:12.957Z,71.35
2023-03-17T05:58:44.197Z,88.97
2023-03-17T06:01:16.948Z,83.13
2023-03-17T06:03:48.925Z,89.72
2023-03-17T06:06:23.356Z,86.25
2023-03-17T06:08:54.591Z,83.90
2023-03-17T06:11:25.593Z,91.00
2023-03-17T06:13:56.903Z,66.18
2023-03-17T06:16:28.416Z,64.25
2023-03-17T06:18:58.863Z,68.05
2023-03-17T06:21:30.032Z,57.80
2023-03-17T06:24:03.257Z,71.47
2023-03-17T06:26:33.487Z,73.70
2023-03-17T06:29:05.465Z,61.83
2023-03-17T06:31:37.350Z,89.68
2023-03-17T06:34:08.658Z,76.80
2023-03-17T06:36:41.378Z,83.00
2023-03-17T06:39:13.339Z,69.72
2023-03-17T06:41:44.732Z,76.85
2023-03-17T06:44:15.578Z,82.65
2023-03-17T06:46:46.584Z,63.55
2023-03-17T06:49:17.395Z,72.53
2023-03-17T06:51:48.679Z,84.13
2023-03-17T06:54:21.494Z,87.43
2023-03-17T06:56:52.314Z,69.78
2023-03-17T06:59:25.276Z,75.85
2023-03-17T07:01:56.212Z,62.50
2023-03-17T07:04:27.962Z,67.97
2023-03-17T07:06:59.979Z,68.35
2023-03-17T07:09:31.580Z,57.53
2023-03-17T07:12:07.065Z,51.72
2023-03-17T07:14:38.947Z,51.95
2023-03-17T07:17:10.460Z,79.72
2023-03-17T07:19:43.109Z,67.70
2023-03-17T07:22:15.740Z,73.57
2023-03-17T07:24:49.856Z,65.05
2023-03-17T07:27:23.260Z,71.35
2023-03-17T07:29:57.012Z,82.15
2023-03-17T07:32:28.611Z,75.70
2023-03-17T07:35:00.953Z,92.35
2023-03-17T07:37:31.258Z,74.88
2023-03-17T07:40:03.050Z,76.13
2023-03-17T07:42:34.432Z,94.97
2023-03-17T07:45:07.851Z,68.32
2023-03-17T07:47:38.578Z,71.78
2023-03-17T07:50:10.301Z,78.93
2023-03-17T07:52:41.440Z,81.10
2023-03-17T07:55:14.835Z,75.00
2023-03-17T07:57:45.694Z,63.25
2023-03-17T08:00:16.515Z,51.38
2023-03-17T08:02:59.617Z,48.85
2023-03-17T08:05:37.539Z,32.83
2023-03-17T08:08:08.045Z,34.85
2023-03-17T08:10:39.230Z,24.60
2023-03-17T08:13:09.726Z,19.23
2023-03-17T08:15:39.767Z,16.40
2023-03-17T08:18:10.385Z,14.88
2023-03-17T08:20:40.584Z,7.20
2023-03-17T08:23:10.836Z,10.63
2023-03-17T08:25:40.906Z,10.35
2023-03-17T08:28:11.796Z,13.27
2023-03-17T08:30:43.475Z,10.57
2023-03-17T08:33:15.257Z,8.90
2023-03-17T08:35:45.725Z,12.02
2023-03-17T08:38:18.855Z,14.50
2023-03-17T08:40:52.842Z,33.42
2023-03-17T08:43:23.489Z,74.30
2023-03-17T08:45:56.743Z,78.20
2023-03-17T08:48:28.259Z,93.80
2023-03-17T08:51:01.228Z,98.72
2023-03-17T08:53:33.186Z,97.32
2023-03-17T08:56:05.306Z,81.82
2023-03-17T08:58:38.982Z,68.35
2023-03-17T09:01:11.086Z,78.97
2023-03-17T09:03:43.536Z,80.53
2023-03-17T09:06:15.604Z,66.82
2023-03-17T09:08:49.601Z,59.65
2023-03-17T09:11:23.043Z,61.35
2023-03-17T09:13:55.194Z,51.05
2023-03-17T09:16:28.145Z,45.63
2023-03-17T09:18:59.922Z,65.65
2023-03-17T09:21:31.393Z,64.65
2023-03-17T09:24:02.857Z,62.75
2023-03-17T09:26:34.276Z,76.50
2023-03-17T09:29:10.213Z,69.38
2023-03-17T09:31:41.067Z,60.55
2023-03-17T09:34:13.381Z,70.72
2023-03-17T09:36:44.640Z,46.47
2023-03-17T09:39:16.128Z,61.78
2023-03-17T09:42:18.277Z,48.70
2023-03-17T09:45:05.305Z,49.78
2023-03-17T09:48:12.216Z,51.95
2023-03-17T09:51:12.472Z,41.40
2023-03-17T09:56:23.309Z,47.47
2023-03-17T09:59:14.956Z,45.00
2023-03-17T10:01:46.036Z,48.13
2023-03-17T10:04:19.067Z,73.20
2023-03-17T10:06:52.219Z,59.53
2023-03-17T10:10:06.590Z,53.00
2023-03-17T10:13:11.568Z,49.95
2023-03-17T10:15:48.165Z,52.97
2023-03-17T10:18:50.300Z,49.90
2023-03-17T10:21:35.649Z,52.75
2023-03-17T10:24:07.276Z,50.45
2023-03-17T10:26:51.664Z,55.17
2023-03-17T10:29:26.603Z,52.00
2023-03-17T10:32:00.438Z,49.17
2023-03-17T10:34:38.465Z,47.08
2023-03-17T10:37:17.657Z,35.90
2023-03-17T10:39:55.174Z,40.22
2023-03-17T10:42:31.515Z,46.15
2023-03-17T10:45:27.469Z,47.58
2023-03-17T10:48:00.520Z,48.53
2023-03-17T10:50:34.915Z,54.78
2023-03-17T10:53:32.906Z,64.22
2023-03-17T10:56:11.796Z,50.80
2023-03-17T10:58:55.149Z,65.15
2023-03-17T11:01:36.857Z,46.30
2023-03-17T11:04:29.094Z,56.85
2023-03-17T11:07:04.471Z,73.03
2023-03-17T11:09:41.990Z,51.92
2023-03-17T11:12:30.912Z,42.45
2023-03-17T11:15:20.551Z,42.60
2023-03-17T11:18:02.629Z,51.90
2023-03-17T11:21:05.824Z,44.20
2023-03-17T11:24:09.419Z,32.95
2023-03-17T11:27:01.113Z,45.25
2023-03-17T11:29:58.348Z,60.05
2023-03-17T11:32:42.863Z,54.65
2023-03-17T11:35:21.663Z,52.42
2023-03-17T11:38:13.725Z,58.05
2023-03-17T11:41:08.040Z,66.40
2023-03-17T11:43:56.927Z,67.13
2023-03-17T11:46:39.394Z,46.13
2023-03-17T11:49:38.340Z,33.38
2023-03-17T11:52:28.747Z,44.55
2023-03-17T11:55:24.027Z,50.60
2023-03-17T11:58:21.140Z,45.20
2023-03-17T12:01:02.713Z,42.67
2023-03-17T12:03:55.093Z,40.95
2023-03-17T12:06:49.076Z,34.70
2023-03-17T12:09:34.804Z,39.67
2023-03-17T12:12:13.823Z,41.47
2023-03-17T12:14:52.860Z,31.10
2023-03-17T12:18:08.982Z,42.40
2023-03-17T12:21:23.006Z,44.78
2023-03-17T12:24:17.288Z,39.05
2023-03-17T12:27:26.070Z,44.97
2023-03-17T12:29:59.520Z,46.25
2023-03-17T12:32:56.939Z,42.80
2023-03-17T12:35:37.016Z,46.78
2023-03-17T12:38:38.897Z,37.10
2023-03-17T12:41:20.549Z,31.60
2023-03-17T12:44:10.607Z,38.13
2023-03-17T12:47:05.442Z,38.92
2023-03-17T12:50:08.386Z,35.72
2023-03-17T12:53:03.199Z,45.42
2023-03-17T12:55:44.562Z,30.15
2023-03-17T12:58:54.202Z,33.50
2023-03-17T13:01:47.041Z,39.35
2023-03-17T13:04:44.545Z,32.80
2023-03-17T13:07:26.880Z,47.70
2023-03-17T13:10:15.627Z,32.05
2023-03-17T13:13:08.422Z,36.08
2023-03-17T13:15:43.811Z,42.58
2023-03-17T13:21:25.210Z,34.90
2023-03-17T13:24:26.192Z,38.03
2023-03-17T13:27:06.910Z,38.50
2023-03-17T13:29:43.662Z,35.00
2023-03-17T13:32:38.957Z,33.20
2023-03-17T13:35:24.250Z,35.13
2023-03-17T13:38:19.978Z,39.80
2023-03-17T13:41:13.909Z,30.88
2023-03-17T13:44:02.116Z,34.90
2023-03-17T13:46:36.498Z,28.67
2023-03-17T13:49:20.873Z,37.40
2023-03-17T13:52:06.655Z,35.88
2023-03-17T13:54:45.078Z,32.65
2023-03-17T13:57:28.984Z,29.48
2023-03-17T14:00:06.151Z,37.65
2023-03-17T14:02:43.854Z,38.33
2023-03-17T14:05:33.642Z,37.53
2023-03-17T14:08:18.249Z,34.90
2023-03-17T14:11:04.159Z,38.65
2023-03-17T14:14:02.449Z,47.95
2023-03-17T14:17:15.748Z,38.00
2023-03-17T14:20:03.831Z,35.67
2023-03-17T14:22:35.257Z,42.13
2023-03-17T14:25:10.135Z,28.45
2023-03-17T14:27:44.516Z,45.45
2023-03-17T14:30:30.895Z,32.95
2023-03-17T14:33:20.853Z,37.50
2023-03-17T14:35:54.993Z,38.17
2023-03-17T14:38:42.713Z,35.53
2023-03-17T14:41:25.454Z,27.85
2023-03-17T14:44:01.538Z,37.63
2023-03-17T14:46:43.358Z,32.70
2023-03-17T14:49:25.337Z,33.28
2023-03-17T14:51:58.913Z,39.97
2023-03-17T14:54:37.350Z,52.35
2023-03-17T14:57:14.756Z,33.67
2023-03-17T15:00:03.768Z,29.02
2023-03-17T15:02:41.725Z,32.90
2023-03-17T15:05:31.449Z,41.42
2023-03-17T15:08:03.876Z,37.50
2023-03-17T15:10:43.937Z,32.15
2023-03-17T15:13:16.317Z,28.33
2023-03-17T15:15:49.180Z,34.22
2023-03-17T15:21:35.423Z,26.30
2023-03-17T15:24:27.873Z,44.30
2023-03-17T15:27:09.622Z,28.20
2023-03-17T15:29:46.406Z,26.83
2023-03-17T15:32:25.594Z,29.65
2023-03-17T15:35:04.196Z,26.80
2023-03-17T15:37:35.954Z,40.90
2023-03-17T15:40:08.013Z,30.48
2023-03-17T15:42:41.753Z,42.00
2023-03-17T15:45:20.224Z,32.25
2023-03-17T15:47:51.198Z,32.35
2023-03-17T15:50:34.430Z,33.10
2023-03-17T15:53:05.326Z,36.80
2023-03-17T15:55:39.857Z,36.70
2023-03-17T15:58:16.060Z,40.25
2023-03-17T16:00:59.488Z,39.30
2023-03-17T16:03:40.900Z,43.05
2023-03-17T16:08:54.466Z,39.53
2023-03-17T16:11:30.805Z,39.38
2023-03-17T16:14:01.844Z,39.80
2023-03-17T16:16:41.173Z,30.15
2023-03-17T16:19:23.104Z,42.28
2023-03-17T16:21:55.114Z,35.22
2023-03-17T16:24:28.929Z,35.83
2023-03-17T16:26:59.361Z,32.40
2023-03-17T16:29:30.402Z,34.60
2023-03-17T16:32:01.885Z,33.33
2023-03-17T16:34:33.232Z,39.00
2023-03-17T16:37:05.837Z,36.35
2023-03-17T16:39:38.231Z,47.63
2023-03-17T16:42:25.791Z,43.80
2023-03-17T16:44:56.727Z,47.33
2023-03-17T16:47:27.325Z,37.40
2023-03-17T16:49:58.814Z,34.45
2023-03-17T16:52:31.407Z,43.55
2023-03-17T16:55:03.081Z,41.20
2023-03-17T16:57:35.508Z,41.83
2023-03-17T17:00:10.890Z,36.25
2023-03-17T17:02:42.593Z,37.88
2023-03-17T17:05:22.462Z,40.75
2023-03-17T17:07:56.261Z,38.25
2023-03-17T17:10:30.197Z,38.55
2023-03-17T17:13:02.094Z,36.53
2023-03-17T17:15:33.763Z,40.20
2023-03-17T17:18:17.756Z,47.13
2023-03-17T17:20:48.987Z,29.63
2023-03-17T17:23:24.258Z,30.55
2023-03-17T17:25:57.312Z,37.20
2023-03-17T17:28:31.402Z,36.92
2023-03-17T17:31:02.352Z,33.90
2023-03-17T17:33:34.146Z,42.85
2023-03-17T17:36:07.614Z,39.33
2023-03-17T17:38:40.702Z,43.53
2023-03-17T17:41:14.676Z,35.97
2023-03-17T17:43:46.518Z,37.08
2023-03-17T17:46:24.859Z,29.27
2023-03-17T17:48:58.496Z,37.50
2023-03-17T17:51:31.680Z,40.53
2023-03-17T17:54:03.010Z,39.70
2023-03-17T17:56:38.033Z,43.20
2023-03-17T17:59:09.786Z,41.25
2023-03-17T18:01:41.624Z,39.47
2023-03-17T18:04:14.116Z,35.95
2023-03-17T18:06:49.174Z,34.92
2023-03-17T18:09:21.274Z,32.40
2023-03-17T18:11:52.580Z,38.85
2023-03-17T18:14:24.249Z,39.75
2023-03-17T18:16:56.018Z,35.40
2023-03-17T18:19:28.155Z,45.38
2023-03-17T18:21:59.951Z,37.80
2023-03-17T18:24:32.123Z,41.08
2023-03-17T18:27:03.067Z,35.30
2023-03-17T18:29:33.610Z,31.75
2023-03-17T18:32:07.286Z,41.67
2023-03-17T18:34:45.536Z,37.45
2023-03-17T18:37:19.503Z,43.75
2023-03-17T18:40:09.714Z,37.85
2023-03-17T18:42:40.347Z,43.33
2023-03-17T18:45:17.473Z,42.40
2023-03-17T18:47:49.117Z,41.00
2023-03-17T18:50:21.966Z,45.55
2023-03-17T18:52:53.668Z,35.85
2023-03-17T18:55:25.603Z,45.90
2023-03-17T18:57:57.049Z,37.75
2023-03-17T19:00:29.994Z,48.60
2023-03-17T19:03:00.243Z,43.63
2023-03-17T19:05:30.610Z,39.70
2023-03-17T19:08:01.733Z,44.17
2023-03-17T19:10:47.587Z,32.60
2023-03-17T19:13:25.633Z,50.97
2023-03-17T19:16:03.121Z,37.88
2023-03-17T19:18:38.688Z,47.28
2023-03-17T19:21:11.112Z,48.03
2023-03-17T19:23:42.812Z,46.10
2023-03-17T19:26:13.120Z,42.38
2023-03-17T19:44:52.080Z,50.47
2023-03-17T19:47:23.517Z,47.97
2023-03-17T19:49:54.333Z,51.38
2023-03-17T19:52:33.657Z,51.97
2023-03-17T19:55:08.867Z,39.60
2023-03-17T19:57:46.072Z,51.28
2023-03-17T20:00:19.701Z,48.63
2023-03-17T20:03:03.247Z,52.80
2023-03-17T20:08:42.778Z,39.92
2023-03-17T20:11:22.970Z,56.58
2023-03-17T20:16:55.588Z,40.90
2023-03-17T20:19:26.058Z,37.45
2023-03-17T20:21:57.143Z,53.83
2023-03-17T20:24:31.246Z,50.95
2023-03-17T20:27:07.283Z,31.42
2023-03-17T20:29:43.792Z,55.20
2023-03-17T20:32:16.371Z,55.72
2023-03-17T20:34:48.105Z,71.28
2023-03-17T20:37:19.886Z,47.40
2023-03-17T20:39:50.599Z,60.00
2023-03-17T20:42:21.407Z,50.58
2023-03-17T20:44:55.375Z,48.40
2023-03-17T20:47:27.000Z,29.95
2023-03-17T20:50:00.938Z,64.43
2023-03-17T20:52:32.689Z,27.88
2023-03-17T20:55:04.963Z,27.23
2023-03-17T20:57:38.381Z,31.75
2023-03-17T21:00:12.357Z,54.45
2023-03-17T21:02:43.345Z,25.63
2023-03-17T21:05:17.999Z,32.08
2023-03-17T21:07:50.308Z,37.55
2023-03-17T21:10:21.877Z,28.25
2023-03-17T21:12:52.264Z,30.27
2023-03-17T21:15:25.924Z,32.63
2023-03-17T21:17:57.408Z,27.58
2023-03-17T21:20:27.624Z,28.10
2023-03-17T21:22:58.771Z,47.10
2023-03-17T21:25:29.502Z,23.42
2023-03-17T21:27:59.677Z,42.72
2023-03-17T21:30:31.327Z,55.42
2023-03-17T21:33:06.006Z,39.72
2023-03-17T21:35:37.683Z,19.52
2023-03-17T21:38:07.887Z,27.27
2023-03-17T21:40:39.030Z,50.05
2023-03-17T21:43:09.410Z,32.20
2023-03-17T21:45:41.375Z,38.38
2023-03-17T21:48:13.229Z,16.83
2023-03-17T21:50:44.427Z,36.25
2023-03-17T21:53:17.206Z,26.75
2023-03-17T21:55:48.664Z,21.83
2023-03-17T21:58:19.282Z,20.02
2023-03-17T22:00:51.393Z,15.00
2023-03-17T22:03:22.582Z,18.80
2023-03-17T22:05:52.946Z,35.75
2023-03-17T22:08:24.781Z,46.90
2023-03-17T22:10:57.927Z,26.73
2023-03-17T22:13:29.036Z,42.60
2023-03-17T22:16:02.152Z,29.85
2023-03-17T22:18:41.808Z,36.38
2023-03-17T22:21:14.816Z,27.58
2023-03-17T22:23:48.934Z,28.17
2023-03-17T23:02:15.798Z,59.78
2023-03-17T23:04:51.216Z,59.78
2023-03-17T23:07:24.921Z,58.92
2023-03-17T23:09:55.990Z,58.78
2023-03-17T23:12:26.304Z,58.80
2023-03-17T23:14:56.506Z,63.63
2023-03-17T23:17:28.780Z,59.17
2023-03-17T23:19:59.112Z,57.13
2023-03-17T23:22:29.190Z,53.45
2023-03-17T23:25:00.805Z,50.30
2023-03-17T23:27:31.006Z,55.47
2023-03-17T23:30:01.953Z,48.90
2023-03-17T23:32:34.430Z,59.10
2023-03-17T23:35:04.982Z,49.00
2023-03-17T23:37:35.492Z,44.42
2023-03-17T23:40:07.743Z,59.42
2023-03-17T23:42:39.290Z,60.92
2023-03-17T23:45:10.781Z,52.15
2023-03-17T23:47:41.461Z,55.35
2023-03-17T23:50:13.802Z,47.97
2023-03-17T23:52:45.502Z,59.72
2023-03-17T23:55:17.491Z,56.30
2023-03-17T23:57:48.855Z,57.45
